Terminal Aerodrome Forecast
Issued by NWS Cleveland, OH

Home | Current Version | Previous Version | Graphics & Text | Print | Product List | Glossary On
Versions: 1 2 3 4 5 6 7 8 9 10 11 12 13 14 15 16 17
000
FTUS41 KCLE 082338
TAFYNG
TAF
KYNG 082338Z 0900/0924 21008KT P6SM BKN250
     FM091100 18006KT P6SM SCT250
     FM091600 19008KT P6SM BKN150
     FM092100 22008KT P6SM OVC040=

USA.gov is the U.S. government's official web portal to all federal, state and local government web resources and services.